createdAt,value
2018-04-25T00:00:16.862Z,78.79
2018-04-25T00:01:16.874Z,78.41
2018-04-25T00:02:16.885Z,78.31
2018-04-25T00:03:16.898Z,78.99
2018-04-25T00:04:16.906Z,79.27
2018-04-25T00:05:16.923Z,78.31
2018-04-25T00:06:16.928Z,78.13
2018-04-25T00:07:16.941Z,78.41
2018-04-25T00:08:16.962Z,78.89
2018-04-25T00:09:16.962Z,79.27
2018-04-25T00:10:16.973Z,79.17
2018-04-25T00:11:16.983Z,79.75
2018-04-25T00:12:17.015Z,79.36
2018-04-25T00:13:17.008Z,79.08
2018-04-25T00:14:17.019Z,78.99
2018-04-25T00:15:17.027Z,78.99
2018-04-25T00:16:17.040Z,78.51
2018-04-25T00:17:17.050Z,78.89
2018-04-25T00:18:17.060Z,78.79
2018-04-25T00:19:17.076Z,79.27
2018-04-25T00:20:17.089Z,80.04
2018-04-25T00:21:17.097Z,79.46
2018-04-25T00:22:17.106Z,79.56
2018-04-25T00:23:17.122Z,79.08
2018-04-25T00:24:17.177Z,79.36
2018-04-25T00:25:17.150Z,79.17
2018-04-25T00:26:17.159Z,79.27
2018-04-25T00:27:17.169Z,79.36
2018-04-25T00:28:17.173Z,79.17
2018-04-25T00:29:17.183Z,79.46
2018-04-25T00:30:17.192Z,79.46
2018-04-25T00:31:17.204Z,79.43
2018-04-25T00:32:17.223Z,79.46
2018-04-25T00:33:17.229Z,79.36
2018-04-25T00:34:17.238Z,79.94
2018-04-25T00:35:17.257Z,80.22
2018-04-25T00:36:17.263Z,80.66
2018-04-25T00:37:17.268Z,80.57
2018-04-25T00:38:17.299Z,80.09
2018-04-25T00:39:17.290Z,80.28
2018-04-25T00:40:17.303Z,79.75
2018-04-25T00:41:17.310Z,79.85
2018-04-25T00:42:17.324Z,79.61
2018-04-25T00:43:17.342Z,79.85
2018-04-25T00:44:17.345Z,79.75
2018-04-25T00:45:17.356Z,79.85
2018-04-25T00:46:17.370Z,79.43
2018-04-25T00:47:17.377Z,80.22
2018-04-25T00:48:17.424Z,79.94
2018-04-25T00:49:17.407Z,80.41
2018-04-25T00:50:17.406Z,80.13
2018-04-25T00:51:17.424Z,79.90
2018-04-25T00:52:17.429Z,80.22
2018-04-25T00:53:17.465Z,81.09
2018-04-25T00:54:17.453Z,80.57
2018-04-25T00:55:17.469Z,80.32
2018-04-25T00:56:17.474Z,80.28
2018-04-25T00:57:17.483Z,80.85
2018-04-25T00:58:17.500Z,81.47
2018-04-25T00:59:17.516Z,81.18
2018-04-25T01:00:17.520Z,80.80
2018-04-25T01:01:17.547Z,80.70
2018-04-25T01:02:17.538Z,80.80
2018-04-25T01:03:17.570Z,80.70
2018-04-25T01:04:17.569Z,80.22
2018-04-25T01:05:17.570Z,80.85
2018-04-25T01:06:17.582Z,80.38
2018-04-25T01:07:17.596Z,80.76
2018-04-25T01:08:17.616Z,81.33
2018-04-25T01:09:17.614Z,80.66
2018-04-25T01:10:17.627Z,81.33
2018-04-25T01:11:17.640Z,81.62
2018-04-25T01:12:17.647Z,82.29
2018-04-25T01:13:17.657Z,82.19
2018-04-25T01:14:17.670Z,81.90
2018-04-25T01:15:17.688Z,82.67
2018-04-25T01:16:17.694Z,81.90
2018-04-25T01:17:17.700Z,81.81
2018-04-25T01:18:17.708Z,81.62
2018-04-25T01:19:17.730Z,81.81
2018-04-25T01:20:17.737Z,82.19
2018-04-25T01:21:17.748Z,82.48
2018-04-25T01:22:17.789Z,82.52
2018-04-25T01:23:17.768Z,82.32
2018-04-25T01:24:17.778Z,83.09
2018-04-25T01:25:17.785Z,82.90
2018-04-25T01:26:17.798Z,83.09
2018-04-25T01:27:17.841Z,82.71
2018-04-25T01:28:17.819Z,82.61
2018-04-25T01:29:17.834Z,82.90
2018-04-25T01:30:17.841Z,83.18
2018-04-25T01:31:17.853Z,83.09
2018-04-25T01:32:17.869Z,82.42
2018-04-25T01:33:17.875Z,83.57
2018-04-25T01:34:17.882Z,83.47
2018-04-25T01:35:17.898Z,83.28
2018-04-25T01:36:17.924Z,83.09
2018-04-25T01:37:17.915Z,83.18
2018-04-25T01:38:17.927Z,82.90
2018-04-25T01:39:17.941Z,83.18
2018-04-25T01:40:17.951Z,83.28
2018-04-25T01:41:17.973Z,84.05
2018-04-25T01:42:17.968Z,84.05
2018-04-25T01:43:18.002Z,84.72
2018-04-25T01:44:17.993Z,84.62
2018-04-25T01:45:18.034Z,85.29
2018-04-25T01:46:18.016Z,84.62
2018-04-25T01:47:18.023Z,84.05
2018-04-25T01:48:18.036Z,83.09
2018-04-25T01:49:18.097Z,83.76
2018-04-25T01:50:18.063Z,83.70
2018-04-25T01:51:18.065Z,83.23
2018-04-25T01:52:18.080Z,82.84
2018-04-25T01:53:18.091Z,83.61
2018-04-25T01:54:18.100Z,83.00
2018-04-25T01:55:18.131Z,83.95
2018-04-25T01:56:18.134Z,83.99
2018-04-25T01:57:18.132Z,83.80
2018-04-25T01:58:18.145Z,83.95
2018-04-25T01:59:18.156Z,83.28
2018-04-25T02:00:18.169Z,83.86
2018-04-25T02:01:18.180Z,83.47
2018-04-25T02:02:18.187Z,83.86
2018-04-25T02:03:18.197Z,84.62
2018-04-25T02:04:18.211Z,83.95
2018-04-25T02:05:18.228Z,83.09
2018-04-25T02:06:18.229Z,83.47
2018-04-25T02:07:18.245Z,83.28
2018-04-25T02:08:18.255Z,83.28
2018-04-25T02:09:18.261Z,83.28
2018-04-25T02:10:18.282Z,83.95
2018-04-25T02:11:18.287Z,84.43
2018-04-25T02:12:18.303Z,84.62
2018-04-25T02:13:18.309Z,84.72
2018-04-25T02:14:18.316Z,84.52
2018-04-25T02:15:18.328Z,85.29
2018-04-25T02:16:18.341Z,85.00
2018-04-25T02:17:18.351Z,84.52
2018-04-25T02:18:18.360Z,84.72
2018-04-25T02:19:18.370Z,85.10
2018-04-25T02:20:18.394Z,84.91
2018-04-25T02:21:18.397Z,84.43
2018-04-25T02:22:18.420Z,85.10
2018-04-25T02:23:18.417Z,85.19
2018-04-25T02:24:18.425Z,85.15
2018-04-25T02:25:18.436Z,86.10
2018-04-25T02:26:18.456Z,86.01
2018-04-25T02:27:18.457Z,85.91
2018-04-25T02:28:18.474Z,86.10
2018-04-25T02:29:18.477Z,87.25
2018-04-25T02:30:18.491Z,86.68
2018-04-25T02:31:18.502Z,87.06
2018-04-25T02:32:18.529Z,86.87
2018-04-25T02:33:18.530Z,86.39
2018-04-25T02:34:18.546Z,86.39
2018-04-25T02:35:18.542Z,86.39
2018-04-25T02:36:18.556Z,86.39
2018-04-25T02:37:18.565Z,86.49
2018-04-25T02:38:18.575Z,86.49
2018-04-25T02:39:18.590Z,86.39
2018-04-25T02:40:18.598Z,85.82
2018-04-25T02:41:18.622Z,86.10
2018-04-25T02:42:18.629Z,85.82
2018-04-25T02:43:18.629Z,85.72
2018-04-25T02:44:18.641Z,86.58
2018-04-25T02:45:18.744Z,86.20
2018-04-25T02:46:18.663Z,86.39
2018-04-25T02:47:18.673Z,86.39
2018-04-25T02:48:18.694Z,86.68
2018-04-25T02:49:18.703Z,87.35
2018-04-25T02:50:18.705Z,87.06
2018-04-25T02:51:18.714Z,87.06
2018-04-25T02:52:18.736Z,86.49
2018-04-25T02:53:18.737Z,86.30
2018-04-25T02:54:18.751Z,85.91
2018-04-25T02:55:18.757Z,85.63
2018-04-25T02:56:18.784Z,85.82
2018-04-25T02:57:18.780Z,86.01
2018-04-25T02:58:18.788Z,86.49
2018-04-25T02:59:18.988Z,86.96
2018-04-25T03:00:18.829Z,87.25
2018-04-25T03:01:18.823Z,87.54
2018-04-25T03:02:18.834Z,86.87
2018-04-25T03:03:18.859Z,87.15
2018-04-25T03:04:18.860Z,87.35
2018-04-25T03:05:18.865Z,86.77
2018-04-25T03:06:18.877Z,86.44
2018-04-25T03:07:18.885Z,87.44
2018-04-25T03:08:18.899Z,86.20
2018-04-25T03:09:18.920Z,86.35
2018-04-25T03:10:18.918Z,86.44
2018-04-25T03:11:18.931Z,86.16
2018-04-25T03:12:18.941Z,86.44
2018-04-25T03:13:18.949Z,85.97
2018-04-25T03:14:18.964Z,86.35
2018-04-25T03:15:18.972Z,86.06
2018-04-25T03:16:18.985Z,87.02
2018-04-25T03:17:18.996Z,85.97
2018-04-25T03:18:19.002Z,86.16
2018-04-25T03:19:19.013Z,86.06
2018-04-25T03:20:19.031Z,85.39
2018-04-25T03:21:19.038Z,85.39
2018-04-25T03:22:19.054Z,85.87
2018-04-25T03:23:19.053Z,86.35
2018-04-25T03:24:19.064Z,87.49
2018-04-25T03:25:19.079Z,87.64
2018-04-25T03:26:19.091Z,86.98
2018-04-25T03:27:19.098Z,87.97
2018-04-25T03:28:19.106Z,87.78
2018-04-25T03:29:19.128Z,87.74
2018-04-25T03:30:19.127Z,87.64
2018-04-25T03:31:19.137Z,87.87
2018-04-25T03:32:19.153Z,88.21
2018-04-25T03:33:19.158Z,88.12
2018-04-25T03:34:19.175Z,88.21
2018-04-25T03:35:19.198Z,88.40
2018-04-25T03:36:19.195Z,88.31
2018-04-25T03:37:19.199Z,86.98
2018-04-25T03:38:19.210Z,87.26
2018-04-25T03:39:19.225Z,87.54
2018-04-25T03:40:19.232Z,87.26
2018-04-25T03:41:19.243Z,87.45
2018-04-25T03:42:19.260Z,87.35
2018-04-25T03:43:19.266Z,87.16
2018-04-25T03:44:19.275Z,87.74
2018-04-25T03:45:19.281Z,88.21
2018-04-25T03:46:19.291Z,88.50
2018-04-25T03:47:19.308Z,88.78
2018-04-25T03:48:19.317Z,88.69
2018-04-25T03:49:19.331Z,87.83
2018-04-25T03:50:19.335Z,88.50
2018-04-25T03:51:19.342Z,88.69
2018-04-25T03:52:19.354Z,88.69
2018-04-25T03:53:19.367Z,88.69
2018-04-25T03:54:19.377Z,88.69
2018-04-25T03:55:19.395Z,88.45
2018-04-25T03:56:19.427Z,88.50
2018-04-25T03:57:19.404Z,88.84
2018-04-25T03:58:19.415Z,89.03
2018-04-25T03:59:19.425Z,89.22
2018-04-25T04:00:19.435Z,88.93
2018-04-25T04:01:19.445Z,89.31
2018-04-25T04:02:19.457Z,89.40
2018-04-25T04:03:19.489Z,91.36
2018-04-25T04:04:19.481Z,92.22
2018-04-25T04:05:19.488Z,93.65
2018-04-25T04:06:19.501Z,92.03
2018-04-25T04:07:19.513Z,92.41
2018-04-25T04:08:19.522Z,91.17
2018-04-25T04:09:19.528Z,90.03
2018-04-25T04:10:19.537Z,88.59
2018-04-25T04:11:19.551Z,88.12
2018-04-25T04:12:19.562Z,87.83
2018-04-25T04:13:19.567Z,88.31
2018-04-25T04:14:19.577Z,88.12
2018-04-25T04:15:19.587Z,88.59
2018-04-25T04:16:19.612Z,88.59
2018-04-25T04:17:19.606Z,90.22
2018-04-25T04:18:19.618Z,90.69
2018-04-25T04:19:19.627Z,89.74
2018-04-25T04:20:19.649Z,90.79
2018-04-25T04:21:19.648Z,90.22
2018-04-25T04:22:19.665Z,90.22
2018-04-25T04:23:19.672Z,91.74
2018-04-25T04:24:19.684Z,91.27
2018-04-25T04:25:19.688Z,90.59
2018-04-25T04:26:19.701Z,90.31
2018-04-25T04:27:19.714Z,93.17
2018-04-25T04:28:19.739Z,91.55
2018-04-25T04:29:19.730Z,91.07
2018-04-25T04:30:19.738Z,90.88
2018-04-25T04:31:19.749Z,90.69
2018-04-25T04:32:19.772Z,90.79
2018-04-25T04:33:19.774Z,90.79
2018-04-25T04:34:19.779Z,91.17
2018-04-25T04:35:19.796Z,91.07
2018-04-25T04:36:19.801Z,91.64
2018-04-25T04:37:19.811Z,92.79
2018-04-25T04:38:19.821Z,93.74
2018-04-25T04:39:19.833Z,93.65
2018-04-25T04:40:19.844Z,94.17
2018-04-25T04:41:19.851Z,94.36
2018-04-25T04:42:19.863Z,93.60
2018-04-25T04:43:19.871Z,92.83
2018-04-25T04:44:19.883Z,93.51
2018-04-25T04:45:19.895Z,93.02
2018-04-25T04:46:19.908Z,92.46
2018-04-25T04:47:19.918Z,92.88
2018-04-25T04:48:19.923Z,92.60
2018-04-25T04:49:19.933Z,92.79
2018-04-25T04:50:19.949Z,92.50
2018-04-25T04:51:19.957Z,92.69
2018-04-25T04:52:19.972Z,92.60
2018-04-25T04:53:19.976Z,92.88
2018-04-25T04:54:19.993Z,92.41
2018-04-25T04:55:20.013Z,92.21
2018-04-25T04:56:20.008Z,92.55
2018-04-25T04:57:20.015Z,92.16
2018-04-25T04:58:20.025Z,92.07
2018-04-25T04:59:20.039Z,92.36
2018-04-25T05:00:20.047Z,92.12
2018-04-25T05:01:20.065Z,92.07
2018-04-25T05:02:20.073Z,92.26
2018-04-25T05:03:20.081Z,92.07
2018-04-25T05:04:20.088Z,91.69
2018-04-25T05:05:20.101Z,92.07
2018-04-25T05:06:20.110Z,91.78
2018-04-25T05:07:20.120Z,91.88
2018-04-25T05:08:20.202Z,92.45
2018-04-25T05:09:20.161Z,92.16
2018-04-25T05:10:20.148Z,92.07
2018-04-25T05:11:20.173Z,92.07
2018-04-25T05:12:20.174Z,92.07
2018-04-25T05:13:20.188Z,91.97
2018-04-25T05:14:20.192Z,92.16
2018-04-25T05:15:20.203Z,91.88
2018-04-25T05:16:20.212Z,92.07
2018-04-25T05:17:20.231Z,91.83
2018-04-25T05:18:20.240Z,91.93
2018-04-25T05:19:20.245Z,92.30
2018-04-25T05:20:20.256Z,92.07
2018-04-25T05:21:20.281Z,92.11
2018-04-25T05:22:20.278Z,92.40
2018-04-25T05:23:20.285Z,92.79
2018-04-25T05:24:20.345Z,92.11
2018-04-25T05:25:20.305Z,91.93
2018-04-25T05:26:20.317Z,92.02
2018-04-25T05:27:20.327Z,91.54
2018-04-25T05:28:20.351Z,91.45
2018-04-25T05:29:20.354Z,91.64
2018-04-25T05:30:20.383Z,92.07
2018-04-25T05:31:20.394Z,92.07
2018-04-25T05:32:20.425Z,91.20
2018-04-25T05:33:20.391Z,91.02
2018-04-25T05:34:20.406Z,91.11
2018-04-25T05:35:20.412Z,90.92
2018-04-25T05:36:20.423Z,90.92
2018-04-25T05:37:20.434Z,91.49
2018-04-25T05:38:20.443Z,91.20
2018-04-25T05:39:20.454Z,91.20
2018-04-25T05:40:20.464Z,90.73
2018-04-25T05:41:20.476Z,90.44
2018-04-25T05:42:20.490Z,90.53
2018-04-25T05:43:20.497Z,90.73
2018-04-25T05:44:20.506Z,90.53
2018-04-25T05:45:20.521Z,90.44
2018-04-25T05:46:20.527Z,91.11
2018-04-25T05:47:20.540Z,90.10
2018-04-25T05:48:20.549Z,89.81
2018-04-25T05:49:20.565Z,90.10
2018-04-25T05:50:20.587Z,89.43
2018-04-25T05:51:20.583Z,89.24
2018-04-25T05:52:20.608Z,89.34
2018-04-25T05:53:20.604Z,90.20
2018-04-25T05:54:20.615Z,89.91
2018-04-25T05:55:20.641Z,89.24
2018-04-25T05:56:20.634Z,89.15
2018-04-25T05:57:20.648Z,88.67
2018-04-25T05:58:20.658Z,88.95
2018-04-25T05:59:20.675Z,88.57
2018-04-25T06:00:20.680Z,88.04
2018-04-25T06:01:20.698Z,88.04
2018-04-25T06:02:20.701Z,88.76
2018-04-25T06:03:20.713Z,88.43
2018-04-25T06:04:20.723Z,89.38
2018-04-25T06:05:20.737Z,89.81
2018-04-25T06:06:20.754Z,89.91
2018-04-25T06:07:20.758Z,89.15
2018-04-25T06:08:20.772Z,89.09
2018-04-25T06:09:20.779Z,88.62
2018-04-25T06:10:20.795Z,89.29
2018-04-25T06:11:20.800Z,89.95
2018-04-25T06:12:20.878Z,89.19
2018-04-25T06:13:20.822Z,88.81
2018-04-25T06:14:20.838Z,89.76
2018-04-25T06:15:20.845Z,89.09
2018-04-25T06:16:20.858Z,88.13
2018-04-25T06:17:20.870Z,88.13
2018-04-25T06:18:20.881Z,88.33
2018-04-25T06:19:20.890Z,87.80
2018-04-25T06:20:20.953Z,88.66
2018-04-25T06:21:20.913Z,87.23
2018-04-25T06:22:20.925Z,88.09
2018-04-25T06:23:20.935Z,86.84
2018-04-25T06:24:20.948Z,85.31
2018-04-25T06:25:20.957Z,85.31
2018-04-25T06:26:20.970Z,85.79
2018-04-25T06:27:21.020Z,85.31
2018-04-25T06:28:20.992Z,84.20
2018-04-25T06:29:21.007Z,84.88
2018-04-25T06:30:21.016Z,82.96
2018-04-25T06:31:21.026Z,83.44
2018-04-25T06:32:21.038Z,83.53
2018-04-25T06:33:21.049Z,83.53
2018-04-25T06:34:21.059Z,82.48
2018-04-25T06:35:21.075Z,82.86
2018-04-25T06:36:21.090Z,82.52
2018-04-25T06:37:21.098Z,82.42
2018-04-25T06:38:21.110Z,82.14
2018-04-25T06:39:21.205Z,82.62
2018-04-25T06:40:21.139Z,82.52
2018-04-25T06:41:21.140Z,81.08
2018-04-25T06:42:21.151Z,81.75
2018-04-25T06:43:21.180Z,82.04
2018-04-25T06:44:21.176Z,81.37
2018-04-25T06:45:21.183Z,80.41
2018-04-25T06:46:21.235Z,79.55
2018-04-25T06:47:21.209Z,79.59
2018-04-25T06:48:21.230Z,79.30
2018-04-25T06:49:21.233Z,79.59
2018-04-25T06:50:21.244Z,79.39
2018-04-25T06:51:21.253Z,79.49
2018-04-25T06:52:21.273Z,79.68
2018-04-25T06:53:21.306Z,78.82
2018-04-25T06:54:21.293Z,77.95
2018-04-25T06:55:21.307Z,78.53
2018-04-25T06:56:21.315Z,78.19
2018-04-25T06:57:21.325Z,77.29
2018-04-25T06:58:21.345Z,77.42
2018-04-25T06:59:21.361Z,78.53
2018-04-25T07:00:21.366Z,77.58
2018-04-25T07:01:21.412Z,77.19
2018-04-25T07:02:21.395Z,76.71
2018-04-25T07:03:21.396Z,76.65
2018-04-25T07:04:21.407Z,78.38
2018-04-25T07:05:21.423Z,77.90
2018-04-25T07:06:21.438Z,76.94
2018-04-25T07:07:21.442Z,76.27
2018-04-25T07:08:21.465Z,75.79
2018-04-25T07:09:21.467Z,74.35
2018-04-25T07:10:21.478Z,74.54
2018-04-25T07:11:21.494Z,74.83
2018-04-25T07:12:21.536Z,74.93
2018-04-25T07:13:21.587Z,74.06
2018-04-25T07:14:21.527Z,73.68
2018-04-25T07:15:21.541Z,74.35
2018-04-25T07:16:21.550Z,73.81
2018-04-25T07:17:21.565Z,72.85
2018-04-25T07:18:21.587Z,72.37
2018-04-25T07:19:21.589Z,72.18
2018-04-25T07:20:21.599Z,72.66
2018-04-25T07:21:21.623Z,72.28
2018-04-25T07:22:21.625Z,72.66
2018-04-25T07:23:21.643Z,72.28
2018-04-25T07:24:21.653Z,72.08
2018-04-25T07:25:21.665Z,71.51
2018-04-25T07:26:21.672Z,71.80
2018-04-25T07:27:21.694Z,71.12
2018-04-25T07:28:21.696Z,71.70
2018-04-25T07:29:21.708Z,71.16
2018-04-25T07:30:21.749Z,72.02
2018-04-25T07:31:21.752Z,73.27
2018-04-25T07:32:21.751Z,73.46
2018-04-25T07:33:21.764Z,73.52
2018-04-25T07:34:21.786Z,72.28
2018-04-25T07:35:21.838Z,73.43
2018-04-25T07:36:21.795Z,71.98
2018-04-25T07:37:21.829Z,71.12
2018-04-25T07:38:21.831Z,72.22
2018-04-25T07:39:21.832Z,72.69
2018-04-25T07:40:21.872Z,73.46
2018-04-25T07:41:21.859Z,72.31
2018-04-25T07:42:21.872Z,71.45
2018-04-25T07:43:21.891Z,71.45
2018-04-25T07:44:21.896Z,70.87
2018-04-25T07:45:21.954Z,69.91
2018-04-25T07:46:21.921Z,68.95
2018-04-25T07:47:21.931Z,68.37
2018-04-25T07:48:21.943Z,70.01
2018-04-25T07:49:21.963Z,69.18
2018-04-25T07:50:21.970Z,68.12
2018-04-25T07:51:21.988Z,69.37
2018-04-25T07:52:22.083Z,69.37
2018-04-25T07:53:22.005Z,68.70
2018-04-25T07:54:22.027Z,68.70
2018-04-25T07:55:22.032Z,67.93
2018-04-25T07:56:22.051Z,67.93
2018-04-25T07:57:22.068Z,66.58
2018-04-25T07:58:22.071Z,67.45
2018-04-25T07:59:22.082Z,68.02
2018-04-25T08:00:22.096Z,67.07
2018-04-25T08:01:22.107Z,66.58
2018-04-25T08:02:22.127Z,67.25
2018-04-25T08:03:22.130Z,67.93
2018-04-25T08:04:22.156Z,68.60
2018-04-25T08:05:22.163Z,67.25
2018-04-25T08:06:22.173Z,68.21
2018-04-25T08:07:22.188Z,66.33
2018-04-25T08:08:22.202Z,66.23
2018-04-25T08:09:22.208Z,66.81
2018-04-25T08:10:22.234Z,67.86
2018-04-25T08:11:22.241Z,66.52
2018-04-25T08:12:22.314Z,67.10
2018-04-25T08:13:22.264Z,66.23
2018-04-25T08:14:22.288Z,67.29
2018-04-25T08:15:22.295Z,66.71
2018-04-25T08:16:22.300Z,67.29
2018-04-25T08:17:22.314Z,67.10
2018-04-25T08:18:22.324Z,66.23
2018-04-25T08:19:22.338Z,65.84
2018-04-25T08:20:22.349Z,65.27
2018-04-25T08:21:22.372Z,66.52
2018-04-25T08:22:22.380Z,69.50
2018-04-25T08:23:22.393Z,67.68
2018-04-25T08:24:22.403Z,67.68
2018-04-25T08:25:22.420Z,69.21
2018-04-25T08:26:22.429Z,69.60
2018-04-25T08:27:22.441Z,69.12
2018-04-25T08:28:22.456Z,67.61
2018-04-25T08:29:22.467Z,66.58
2018-04-25T08:30:22.482Z,66.97
2018-04-25T08:31:22.498Z,65.33
2018-04-25T08:32:22.506Z,64.18
2018-04-25T08:33:22.521Z,65.33
2018-04-25T08:34:22.551Z,63.31
2018-04-25T08:35:22.553Z,64.56
2018-04-25T08:36:22.559Z,64.92
2018-04-25T08:37:22.572Z,65.33
2018-04-25T08:38:22.639Z,66.58
2018-04-25T08:39:22.601Z,66.74
2018-04-25T08:40:22.615Z,66.94
2018-04-25T08:41:22.626Z,66.94
2018-04-25T08:42:22.643Z,66.94
2018-04-25T08:43:22.663Z,68.67
2018-04-25T08:44:22.678Z,67.42
2018-04-25T08:45:22.684Z,67.45
2018-04-25T08:46:22.701Z,67.42
2018-04-25T08:47:22.713Z,69.09
2018-04-25T08:48:22.727Z,66.84
2018-04-25T08:49:22.741Z,66.94
2018-04-25T08:50:22.758Z,65.14
2018-04-25T08:51:22.778Z,65.63
2018-04-25T08:52:22.787Z,66.01
2018-04-25T08:53:22.799Z,65.20
2018-04-25T08:54:22.809Z,63.70
2018-04-25T08:55:22.823Z,65.91
2018-04-25T08:56:22.846Z,65.24
2018-04-25T08:57:22.858Z,64.08
2018-04-25T08:58:22.866Z,63.89
2018-04-25T08:59:22.881Z,62.74
2018-04-25T09:00:22.897Z,63.51
2018-04-25T09:01:22.908Z,63.31
2018-04-25T09:02:22.922Z,62.93
2018-04-25T09:03:22.938Z,61.87
2018-04-25T09:04:22.951Z,62.74
2018-04-25T09:05:22.967Z,61.49
2018-04-25T09:06:22.983Z,61.10
2018-04-25T09:07:23.019Z,61.58
2018-04-25T09:08:23.006Z,61.39
2018-04-25T09:09:23.018Z,62.09
2018-04-25T09:10:23.033Z,62.29
2018-04-25T09:11:23.049Z,64.79
2018-04-25T09:12:23.062Z,64.50
2018-04-25T09:13:23.074Z,66.91
2018-04-25T09:14:23.099Z,65.08
2018-04-25T09:15:23.104Z,65.46
2018-04-25T09:16:23.115Z,64.40
2018-04-25T09:17:23.129Z,63.92
2018-04-25T09:18:23.141Z,64.50
2018-04-25T09:19:23.157Z,62.19
2018-04-25T09:20:23.228Z,62.48
2018-04-25T09:21:23.191Z,62.96
2018-04-25T09:22:23.200Z,61.32
2018-04-25T09:23:23.218Z,61.04
2018-04-25T09:24:23.226Z,63.25
2018-04-25T09:25:23.240Z,64.40
2018-04-25T09:26:23.307Z,62.87
2018-04-25T09:27:23.275Z,63.06
2018-04-25T09:28:23.289Z,62.96
2018-04-25T09:29:23.295Z,63.34
2018-04-25T09:30:23.311Z,60.94
2018-04-25T09:31:23.322Z,60.65
2018-04-25T09:32:23.338Z,60.17
2018-04-25T09:33:23.356Z,60.07
2018-04-25T09:34:23.376Z,59.88
2018-04-25T09:35:23.382Z,59.78
2018-04-25T09:36:23.395Z,60.94
2018-04-25T09:37:23.410Z,61.04
2018-04-25T09:38:23.421Z,61.32
2018-04-25T09:39:23.434Z,61.61
2018-04-25T09:40:23.450Z,60.94
2018-04-25T09:41:23.470Z,59.49
2018-04-25T09:42:23.481Z,60.68
2018-04-25T09:43:23.489Z,60.68
2018-04-25T09:44:23.511Z,59.97
2018-04-25T09:45:23.516Z,60.84
2018-04-25T09:46:23.533Z,61.61
2018-04-25T09:47:23.566Z,60.55
2018-04-25T09:48:23.560Z,60.94
2018-04-25T09:49:23.589Z,59.40
2018-04-25T09:50:23.584Z,60.97
2018-04-25T09:51:23.604Z,61.74
2018-04-25T09:52:23.612Z,59.91
2018-04-25T09:53:23.631Z,60.77
2018-04-25T09:54:23.646Z,60.77
2018-04-25T09:55:23.668Z,61.83
2018-04-25T09:56:23.678Z,61.35
2018-04-25T09:57:23.775Z,58.24
2018-04-25T09:58:23.698Z,59.78
2018-04-25T09:59:23.711Z,60.07
2018-04-25T10:00:23.732Z,59.81
2018-04-25T10:01:23.745Z,58.75
2018-04-25T10:02:23.774Z,60.00
2018-04-25T10:03:23.796Z,58.95
2018-04-25T10:04:23.786Z,62.03
2018-04-25T10:05:23.799Z,59.33
2018-04-25T10:06:23.813Z,61.25
2018-04-25T10:07:23.827Z,60.49
2018-04-25T10:08:23.840Z,60.13
2018-04-25T10:09:23.867Z,59.84
2018-04-25T10:10:23.868Z,56.76
2018-04-25T10:11:23.882Z,58.69
2018-04-25T10:12:23.899Z,60.13
2018-04-25T10:13:23.914Z,58.75
2018-04-25T10:14:23.927Z,58.27
2018-04-25T10:15:23.942Z,60.03
2018-04-25T10:16:23.992Z,56.18
2018-04-25T10:17:24.019Z,55.99
2018-04-25T10:18:23.985Z,54.06
2018-04-25T10:19:23.997Z,53.96
2018-04-25T10:20:24.016Z,56.95
2018-04-25T10:21:24.025Z,55.99
2018-04-25T10:22:24.038Z,56.57
2018-04-25T10:23:24.061Z,55.12
2018-04-25T10:24:24.073Z,55.41
2018-04-25T10:25:24.086Z,56.44
2018-04-25T10:26:24.103Z,56.35
2018-04-25T10:27:24.110Z,56.27
2018-04-25T10:28:24.127Z,54.83
2018-04-25T10:29:24.138Z,55.02
2018-04-25T10:30:24.160Z,57.46
2018-04-25T10:31:24.169Z,56.98
2018-04-25T10:32:24.190Z,57.46
2018-04-25T10:33:24.199Z,58.33
2018-04-25T10:34:24.210Z,59.10
2018-04-25T10:35:24.227Z,53.89
2018-04-25T10:36:24.241Z,52.93
2018-04-25T10:37:24.255Z,54.38
2018-04-25T10:38:24.269Z,52.45
2018-04-25T10:39:24.289Z,51.22
2018-04-25T10:40:24.345Z,50.32
2018-04-25T10:41:24.317Z,49.48
2018-04-25T10:42:24.334Z,49.87
2018-04-25T10:43:24.353Z,50.26
2018-04-25T10:44:24.365Z,51.68
2018-04-25T10:45:24.375Z,50.74
2018-04-25T10:46:24.391Z,49.39
2018-04-25T10:47:24.405Z,49.96
2018-04-25T10:48:24.418Z,51.12
2018-04-25T10:49:24.433Z,49.96
2018-04-25T10:50:24.447Z,50.06
2018-04-25T10:51:24.460Z,51.22
2018-04-25T10:52:24.478Z,50.93
2018-04-25T10:53:24.493Z,51.12
2018-04-25T10:54:24.504Z,52.47
2018-04-25T10:55:24.568Z,53.15
2018-04-25T10:56:24.535Z,51.80
2018-04-25T10:57:24.553Z,50.76
2018-04-25T10:58:24.571Z,51.44
2018-04-25T10:59:24.580Z,49.70
2018-04-25T11:00:24.604Z,49.70
2018-04-25T11:01:24.609Z,49.92
2018-04-25T11:02:24.673Z,47.41
2018-04-25T11:03:24.640Z,48.39
2018-04-25T11:04:24.667Z,46.56
2018-04-25T11:05:24.695Z,44.75
2018-04-25T11:06:24.688Z,45.62
2018-04-25T11:07:24.757Z,45.54
2018-04-25T11:08:24.776Z,46.25
2018-04-25T11:09:24.732Z,44.23
2018-04-25T11:10:24.748Z,43.85
2018-04-25T11:11:24.766Z,43.75
2018-04-25T11:12:24.783Z,44.04
2018-04-25T11:13:24.811Z,44.81
2018-04-25T11:14:24.821Z,44.79
2018-04-25T11:15:24.840Z,45.13
2018-04-25T11:16:24.861Z,44.67
2018-04-25T11:17:24.882Z,43.99
2018-04-25T11:18:24.894Z,41.30
2018-04-25T11:19:24.929Z,42.75
2018-04-25T11:20:24.989Z,41.47
2018-04-25T11:21:24.955Z,40.92
2018-04-25T11:22:24.974Z,40.17
2018-04-25T11:23:25.001Z,39.80
2018-04-25T11:24:25.020Z,38.32
2018-04-25T11:25:25.040Z,38.25
2018-04-25T11:26:25.068Z,39.20
2018-04-25T11:27:25.082Z,36.58
2018-04-25T11:28:25.107Z,37.01
2018-04-25T11:29:25.127Z,36.99
2018-04-25T11:30:25.155Z,35.47
2018-04-25T11:31:25.182Z,34.53
2018-04-25T11:32:25.195Z,36.05
2018-04-25T11:33:25.218Z,36.87
2018-04-25T11:34:25.284Z,38.79
2018-04-25T11:35:25.263Z,38.64
2018-04-25T11:36:25.303Z,38.13
2018-04-25T11:37:25.319Z,37.37
2018-04-25T11:38:25.335Z,36.22
2018-04-25T11:39:25.374Z,38.91
2018-04-25T11:40:25.391Z,39.32
2018-04-25T11:41:25.418Z,38.42
2018-04-25T11:42:25.441Z,37.35
2018-04-25T11:43:25.451Z,38.50
2018-04-25T11:44:25.483Z,39.69
2018-04-25T11:45:25.497Z,42.49
2018-04-25T11:46:25.520Z,43.92
2018-04-25T11:47:25.542Z,41.97
2018-04-25T11:48:25.565Z,41.99
2018-04-25T11:49:25.586Z,40.36
2018-04-25T11:50:25.619Z,40.87
2018-04-25T11:51:25.633Z,38.96
2018-04-25T11:52:25.658Z,38.89
2018-04-25T11:53:25.686Z,40.83
2018-04-25T11:54:25.709Z,40.31
2018-04-25T11:55:25.725Z,42.76
2018-04-25T11:56:25.760Z,41.39
2018-04-25T11:57:25.771Z,41.35
2018-04-25T11:58:25.799Z,39.04
2018-04-25T11:59:25.818Z,38.99
2018-04-25T12:00:25.843Z,35.80
2018-04-25T12:01:25.866Z,35.22
2018-04-25T12:02:25.888Z,36.61
2018-04-25T12:03:25.910Z,34.66
2018-04-25T12:04:25.936Z,35.28
2018-04-25T12:05:25.957Z,35.98
2018-04-25T12:06:25.979Z,34.46
2018-04-25T12:07:26.011Z,32.91
2018-04-25T12:08:26.029Z,35.08
2018-04-25T12:09:26.052Z,34.40
2018-04-25T12:10:26.081Z,33.98
2018-04-25T12:11:26.111Z,33.29
2018-04-25T12:12:26.123Z,34.35
2018-04-25T12:13:26.145Z,36.63
2018-04-25T12:14:26.198Z,36.93
2018-04-25T12:15:26.200Z,34.58
2018-04-25T12:16:26.218Z,34.09
2018-04-25T12:17:26.249Z,32.71
2018-04-25T12:18:26.268Z,34.64
2018-04-25T12:19:26.290Z,33.86
2018-04-25T12:20:26.315Z,35.63
2018-04-25T12:21:26.339Z,34.09
2018-04-25T12:22:26.391Z,31.88
2018-04-25T12:23:26.396Z,32.24
2018-04-25T12:24:26.453Z,33.49
2018-04-25T12:25:26.440Z,33.61
2018-04-25T12:26:26.468Z,33.59
2018-04-25T12:27:26.487Z,34.33
2018-04-25T12:28:26.515Z,35.11
2018-04-25T12:29:26.547Z,33.86
2018-04-25T12:30:26.562Z,34.27
2018-04-25T12:31:26.592Z,34.48
2018-04-25T12:32:26.623Z,32.91
2018-04-25T12:33:26.636Z,32.70
2018-04-25T12:34:26.662Z,33.67
2018-04-25T12:35:26.695Z,37.96
2018-04-25T12:36:26.718Z,38.60
2018-04-25T12:37:26.739Z,37.08
2018-04-25T12:38:26.766Z,36.13
2018-04-25T12:39:26.792Z,36.81
2018-04-25T12:40:26.815Z,34.72
2018-04-25T12:41:26.951Z,35.99
2018-04-25T12:42:26.868Z,32.00
2018-04-25T12:43:26.908Z,33.51
2018-04-25T12:44:26.922Z,34.44
2018-04-25T12:45:26.940Z,35.98
2018-04-25T12:46:26.966Z,35.92
2018-04-25T12:47:27.026Z,35.06
2018-04-25T12:48:27.033Z,35.53
2018-04-25T12:49:27.041Z,36.15
2018-04-25T12:50:27.069Z,36.91
2018-04-25T12:51:27.091Z,39.67
2018-04-25T12:52:27.118Z,41.77